createdAt,value
2023-02-14T00:02:14.732Z,3.56
2023-02-14T00:05:00.243Z,3.56
2023-02-14T00:07:46.043Z,3.74
2023-02-14T00:10:31.330Z,3.79
2023-02-14T00:13:16.640Z,3.73
2023-02-14T00:16:03.690Z,3.56
2023-02-14T00:19:04.412Z,3.51
2023-02-14T00:21:50.521Z,3.51
2023-02-14T00:24:36.065Z,3.70
2023-02-14T00:27:21.526Z,3.83
2023-02-14T00:30:09.053Z,3.93
2023-02-14T00:32:56.926Z,4.05
2023-02-14T00:35:42.181Z,4.23
2023-02-14T00:38:27.606Z,4.40
2023-02-14T00:41:19.311Z,4.46
2023-02-14T00:44:05.418Z,4.38
2023-02-14T00:46:51.260Z,4.32
2023-02-14T00:49:36.732Z,4.33
2023-02-14T00:52:22.034Z,4.32
2023-02-14T00:55:08.257Z,4.35
2023-02-14T00:57:53.920Z,4.41
2023-02-14T01:00:39.847Z,4.40
2023-02-14T01:03:25.570Z,4.51
2023-02-14T01:06:11.027Z,4.49
2023-02-14T01:08:56.813Z,4.45
2023-02-14T01:11:42.230Z,4.48
2023-02-14T01:14:27.798Z,4.45
2023-02-14T01:17:13.207Z,4.40
2023-02-14T01:19:58.371Z,4.39
2023-02-14T01:22:43.871Z,4.40
2023-02-14T01:25:29.432Z,4.39
2023-02-14T01:28:16.950Z,4.34
2023-02-14T01:31:11.053Z,4.34
2023-02-14T01:33:57.745Z,4.39
2023-02-14T01:36:43.108Z,4.45
2023-02-14T01:39:28.426Z,4.62
2023-02-14T01:42:13.918Z,4.76
2023-02-14T01:45:01.570Z,4.89
2023-02-14T01:47:52.113Z,4.99
2023-02-14T01:50:42.927Z,5.16
2023-02-14T01:53:29.052Z,5.26
2023-02-14T01:56:21.643Z,5.35
2023-02-14T01:59:12.877Z,5.44
2023-02-14T02:02:02.489Z,5.54
2023-02-14T02:04:47.893Z,5.59
2023-02-14T02:07:33.303Z,5.63
2023-02-14T02:10:19.011Z,5.66
2023-02-14T02:13:07.978Z,5.64
2023-02-14T02:16:02.521Z,5.59
2023-02-14T02:18:58.217Z,5.59
2023-02-14T02:21:43.501Z,5.54
2023-02-14T02:24:48.893Z,5.46
2023-02-14T02:28:14.741Z,5.40
2023-02-14T02:31:18.918Z,5.38
2023-02-14T02:34:53.917Z,5.32
2023-02-14T02:38:00.605Z,5.34
2023-02-14T02:41:11.819Z,5.33
2023-02-14T02:44:18.787Z,5.31
2023-02-14T02:47:03.979Z,5.35
2023-02-14T02:50:32.324Z,5.44
2023-02-14T02:53:51.767Z,5.47
2023-02-14T02:56:49.943Z,5.45
2023-02-14T02:59:41.648Z,5.52
2023-02-14T03:03:08.299Z,5.51
2023-02-14T03:05:53.925Z,5.51
2023-02-14T03:08:39.315Z,5.48
2023-02-14T03:11:26.011Z,5.45
2023-02-14T03:14:37.115Z,5.43
2023-02-14T03:17:37.505Z,5.43
2023-02-14T03:20:55.011Z,5.43
2023-02-14T03:23:54.273Z,5.43
2023-02-14T03:26:50.658Z,5.46
2023-02-14T03:29:43.978Z,5.44
2023-02-14T03:32:50.828Z,5.53
2023-02-14T03:36:14.632Z,5.60
2023-02-14T03:39:13.210Z,5.66
2023-02-14T03:42:07.805Z,5.66
2023-02-14T03:44:56.863Z,5.73
2023-02-14T03:47:44.680Z,5.74
2023-02-14T03:50:33.011Z,5.80
2023-02-14T03:53:23.881Z,5.80
2023-02-14T03:56:18.520Z,5.80
2023-02-14T03:59:13.556Z,5.81
2023-02-14T04:02:07.469Z,5.83
2023-02-14T04:04:54.571Z,5.86
2023-02-14T04:07:52.302Z,5.95
2023-02-14T04:10:40.119Z,6.04
2023-02-14T04:13:25.379Z,6.12
2023-02-14T04:16:10.861Z,6.19
2023-02-14T04:19:14.654Z,6.30
2023-02-14T04:22:00.301Z,6.34
2023-02-14T04:24:45.712Z,6.39
2023-02-14T04:27:31.022Z,6.45
2023-02-14T04:30:18.192Z,6.47
2023-02-14T04:33:04.801Z,6.51
2023-02-14T04:35:50.371Z,6.56
2023-02-14T04:38:35.980Z,6.60
2023-02-14T04:41:21.436Z,6.66
2023-02-14T04:44:06.720Z,6.74
2023-02-14T04:46:52.674Z,6.77
2023-02-14T04:49:38.042Z,6.81
2023-02-14T04:52:23.543Z,6.84
2023-02-14T04:55:09.702Z,6.91
2023-02-14T04:57:55.249Z,6.95
2023-02-14T05:00:40.597Z,6.99
2023-02-14T05:03:26.036Z,7.00
2023-02-14T05:06:11.735Z,7.00
2023-02-14T05:08:57.232Z,6.97
2023-02-14T05:11:42.578Z,6.88
2023-02-14T05:14:27.921Z,6.74
2023-02-14T05:17:13.268Z,6.69
2023-02-14T05:19:58.733Z,6.65
2023-02-14T05:22:44.084Z,6.58
2023-02-14T05:25:30.365Z,6.50
2023-02-14T05:28:15.863Z,6.49
2023-02-14T05:31:01.843Z,6.49
2023-02-14T05:33:47.615Z,6.52
2023-02-14T05:36:33.043Z,6.51
2023-02-14T05:39:18.556Z,6.53
2023-02-14T05:42:04.157Z,6.56
2023-02-14T05:44:49.467Z,6.57
2023-02-14T05:47:35.385Z,6.58
2023-02-14T05:50:21.208Z,6.56
2023-02-14T05:53:06.517Z,6.56
2023-02-14T05:55:51.994Z,6.57
2023-02-14T05:58:37.327Z,6.57
2023-02-14T06:01:22.716Z,6.59
2023-02-14T06:04:08.522Z,6.64
2023-02-14T06:06:54.024Z,6.72
2023-02-14T06:09:39.429Z,6.73
2023-02-14T06:12:25.115Z,6.66
2023-02-14T06:15:11.428Z,6.64
2023-02-14T06:17:57.888Z,6.69
2023-02-14T06:20:43.416Z,6.76
2023-02-14T06:23:28.914Z,6.78
2023-02-14T06:26:14.124Z,6.83
2023-02-14T06:28:59.648Z,6.87
2023-02-14T06:31:45.284Z,6.95
2023-02-14T06:34:30.848Z,7.03
2023-02-14T06:37:16.453Z,7.04
2023-02-14T06:40:01.992Z,6.97
2023-02-14T06:42:47.700Z,6.90
2023-02-14T06:45:33.044Z,6.90
2023-02-14T06:48:18.300Z,6.94
2023-02-14T06:51:03.973Z,6.95
2023-02-14T06:53:49.447Z,6.95
2023-02-14T06:56:34.925Z,7.06
2023-02-14T06:59:20.192Z,7.23
2023-02-14T07:02:05.596Z,7.31
2023-02-14T07:04:50.980Z,7.34
2023-02-14T07:07:36.310Z,7.37
2023-02-14T07:10:21.810Z,7.38
2023-02-14T07:13:07.157Z,7.40
2023-02-14T07:15:52.596Z,7.42
2023-02-14T07:18:37.913Z,7.44
2023-02-14T07:21:23.401Z,7.45
2023-02-14T07:24:08.792Z,7.47
2023-02-14T07:26:54.257Z,7.51
2023-02-14T07:29:39.773Z,7.54
2023-02-14T07:32:25.669Z,7.59
2023-02-14T07:35:12.254Z,7.65
2023-02-14T07:37:59.338Z,7.72
2023-02-14T07:40:44.523Z,7.75
2023-02-14T07:43:30.537Z,7.78
2023-02-14T07:46:17.547Z,7.82
2023-02-14T07:49:03.073Z,7.85
2023-02-14T07:51:48.674Z,7.89
2023-02-14T07:54:34.319Z,7.96
2023-02-14T07:57:19.853Z,7.98
2023-02-14T08:00:06.995Z,8.00
2023-02-14T08:02:57.205Z,8.00
2023-02-14T08:05:42.836Z,8.03
2023-02-14T08:08:31.146Z,8.05
2023-02-14T08:11:36.440Z,8.07
2023-02-14T08:14:22.713Z,8.08
2023-02-14T08:17:10.179Z,8.08
2023-02-14T08:19:55.685Z,8.09
2023-02-14T08:22:41.036Z,8.13
2023-02-14T08:25:26.386Z,8.19
2023-02-14T08:28:13.928Z,8.22
2023-02-14T08:30:59.347Z,8.22
2023-02-14T08:33:45.611Z,8.22
2023-02-14T08:36:31.244Z,8.22
2023-02-14T08:39:16.619Z,8.21
2023-02-14T08:42:01.936Z,8.28
2023-02-14T08:44:47.547Z,8.37
2023-02-14T08:47:38.540Z,8.44
2023-02-14T08:50:24.459Z,8.54
2023-02-14T08:53:12.182Z,8.63
2023-02-14T08:56:03.130Z,8.71
2023-02-14T08:58:52.098Z,8.80
2023-02-14T09:01:37.726Z,8.85
2023-02-14T09:04:23.401Z,8.86
2023-02-14T09:07:09.336Z,8.84
2023-02-14T09:09:54.955Z,8.86
2023-02-14T09:12:41.343Z,8.88
2023-02-14T09:15:26.662Z,8.90
2023-02-14T09:18:12.170Z,8.92
2023-02-14T09:20:57.730Z,8.95
2023-02-14T09:23:43.609Z,8.96
2023-02-14T09:26:29.327Z,8.96
2023-02-14T09:29:16.239Z,9.00
2023-02-14T09:32:02.753Z,9.09
2023-02-14T09:34:48.296Z,9.15
2023-02-14T09:37:52.104Z,9.21
2023-02-14T09:40:37.836Z,9.27
2023-02-14T09:43:45.022Z,9.32
2023-02-14T09:46:35.960Z,9.35
2023-02-14T09:49:33.861Z,9.37
2023-02-14T09:52:23.205Z,9.42
2023-02-14T09:55:14.778Z,9.48
2023-02-14T09:58:23.065Z,9.53
2023-02-14T10:01:19.005Z,9.60
2023-02-14T10:04:28.008Z,9.64
2023-02-14T10:07:33.900Z,9.76
2023-02-14T10:10:28.499Z,9.85
2023-02-14T10:13:22.855Z,9.93
2023-02-14T10:16:18.774Z,9.98
2023-02-14T10:19:23.994Z,10.04
2023-02-14T10:22:14.772Z,10.16
2023-02-14T10:25:20.936Z,10.32
2023-02-14T10:28:15.220Z,10.43
2023-02-14T10:31:20.789Z,10.53
2023-02-14T10:34:21.316Z,10.60
2023-02-14T10:37:20.390Z,10.63
2023-02-14T10:40:32.919Z,10.71
2023-02-14T10:43:45.917Z,10.85
2023-02-14T10:46:41.222Z,10.93
2023-02-14T10:49:45.317Z,11.04
2023-02-14T10:52:49.768Z,11.29
2023-02-14T10:56:13.197Z,11.51
2023-02-14T10:59:03.456Z,11.70
2023-02-14T11:01:52.377Z,11.74
2023-02-14T11:04:38.552Z,11.64
2023-02-14T11:07:24.263Z,11.58
2023-02-14T11:10:14.412Z,11.42
2023-02-14T11:12:59.866Z,11.33
2023-02-14T11:15:50.901Z,11.33
2023-02-14T11:18:39.966Z,11.32
2023-02-14T11:21:39.340Z,11.28
2023-02-14T11:24:29.980Z,11.23
2023-02-14T11:27:19.564Z,11.19
2023-02-14T11:30:18.737Z,11.16
2023-02-14T11:33:05.579Z,11.15
2023-02-14T11:35:53.137Z,11.10
2023-02-14T11:38:40.123Z,11.09
2023-02-14T11:41:26.133Z,11.04
2023-02-14T11:44:24.737Z,10.99
2023-02-14T11:47:27.470Z,10.96
2023-02-14T11:50:24.902Z,10.89
2023-02-14T11:53:12.686Z,10.86
2023-02-14T11:56:00.813Z,10.91
2023-02-14T11:59:04.593Z,11.00
2023-02-14T12:01:50.155Z,11.11
2023-02-14T12:04:46.315Z,11.20
2023-02-14T12:07:39.601Z,11.31
2023-02-14T12:10:33.207Z,11.36
2023-02-14T12:13:18.729Z,11.36
2023-02-14T12:16:04.389Z,11.33
2023-02-14T12:19:03.159Z,11.27
2023-02-14T12:21:53.573Z,11.31
2023-02-14T12:24:49.206Z,11.29
2023-02-14T12:27:49.523Z,11.29
2023-02-14T12:30:35.448Z,11.32
2023-02-14T12:33:23.571Z,11.30
2023-02-14T12:36:42.637Z,11.38
2023-02-14T12:39:42.920Z,11.46
2023-02-14T12:43:06.043Z,11.61
2023-02-14T12:45:51.517Z,11.74
2023-02-14T12:48:50.785Z,11.89
2023-02-14T12:52:09.165Z,12.00
2023-02-14T12:55:00.780Z,12.21
2023-02-14T12:58:13.943Z,12.42
2023-02-14T13:01:28.410Z,12.64
2023-02-14T13:04:14.772Z,12.78
2023-02-14T13:07:04.911Z,12.87
2023-02-14T13:09:53.255Z,12.94
2023-02-14T13:12:54.936Z,12.99
2023-02-14T13:16:03.861Z,13.02
2023-02-14T13:18:55.647Z,13.01
2023-02-14T13:21:43.080Z,12.99
2023-02-14T13:24:35.693Z,12.96
2023-02-14T13:27:38.941Z,12.94
2023-02-14T13:30:29.977Z,12.95
2023-02-14T13:33:27.199Z,12.95
2023-02-14T13:36:13.869Z,12.98
2023-02-14T13:39:00.321Z,13.16
2023-02-14T13:41:46.176Z,13.33
2023-02-14T13:44:46.957Z,13.47
2023-02-14T13:47:32.501Z,13.52
2023-02-14T13:50:21.616Z,13.50
2023-02-14T13:53:13.928Z,13.45
2023-02-14T13:56:00.673Z,13.42
2023-02-14T13:59:06.433Z,13.50
2023-02-14T14:01:52.108Z,13.53
2023-02-14T14:04:38.637Z,13.58
2023-02-14T14:07:30.925Z,13.60
2023-02-14T14:10:46.223Z,13.56
2023-02-14T14:13:40.992Z,13.49
2023-02-14T14:16:29.848Z,13.41
2023-02-14T14:19:21.977Z,13.31
2023-02-14T14:22:10.666Z,13.23
2023-02-14T14:24:59.765Z,13.26
2023-02-14T14:27:46.833Z,13.21
2023-02-14T14:30:35.772Z,13.18
2023-02-14T14:33:32.523Z,13.17
2023-02-14T14:36:24.975Z,13.16
2023-02-14T14:39:11.004Z,13.16
2023-02-14T14:42:06.988Z,13.18
2023-02-14T14:45:01.972Z,13.23
2023-02-14T14:47:48.933Z,13.26
2023-02-14T14:50:36.746Z,13.33
2023-02-14T14:53:42.041Z,13.34
2023-02-14T14:56:31.233Z,13.29
2023-02-14T14:59:29.260Z,13.27
2023-02-14T15:02:23.878Z,13.28
2023-02-14T15:05:34.284Z,13.24
2023-02-14T15:08:32.363Z,13.20
2023-02-14T15:11:46.907Z,13.18
2023-02-14T15:14:36.105Z,13.15
2023-02-14T15:17:31.894Z,13.12
2023-02-14T15:20:23.980Z,13.06
2023-02-14T15:23:19.113Z,13.02
2023-02-14T15:26:06.302Z,12.97
2023-02-14T15:28:59.248Z,12.93
2023-02-14T15:31:45.948Z,12.89
2023-02-14T15:34:36.257Z,12.85
2023-02-14T15:37:24.018Z,12.84
2023-02-14T15:40:17.917Z,12.84
2023-02-14T15:43:27.890Z,12.82
2023-02-14T15:46:39.664Z,12.87
2023-02-14T15:49:35.791Z,12.94
2023-02-14T15:52:22.043Z,12.98
2023-02-14T15:55:15.341Z,12.99
2023-02-14T15:58:05.913Z,13.03
2023-02-14T16:00:52.696Z,13.10
2023-02-14T16:03:43.679Z,13.21
2023-02-14T16:06:44.934Z,13.31
2023-02-14T16:09:34.323Z,13.47
2023-02-14T16:12:36.047Z,13.58
2023-02-14T16:15:24.110Z,13.56
2023-02-14T16:18:32.420Z,13.57
2023-02-14T16:21:19.373Z,13.43
2023-02-14T16:24:08.189Z,13.27
2023-02-14T16:26:53.459Z,13.10
2023-02-14T16:29:41.289Z,12.94
2023-02-14T16:32:26.615Z,12.74
2023-02-14T16:35:20.126Z,12.58
2023-02-14T16:38:05.411Z,12.43
2023-02-14T16:40:53.192Z,12.25
2023-02-14T16:43:38.446Z,12.04
2023-02-14T16:46:28.767Z,11.83
2023-02-14T16:49:14.825Z,11.61
2023-02-14T16:52:00.153Z,11.40
2023-02-14T16:54:45.394Z,11.25
2023-02-14T16:57:40.753Z,11.09
2023-02-14T17:00:27.449Z,10.95
2023-02-14T17:03:12.930Z,10.79
2023-02-14T17:06:01.396Z,10.62
2023-02-14T17:08:50.171Z,10.43
2023-02-14T17:11:41.688Z,10.25
2023-02-14T17:14:33.150Z,10.13
2023-02-14T17:17:18.932Z,10.01
2023-02-14T17:20:08.275Z,9.88
2023-02-14T17:22:55.559Z,9.77
2023-02-14T17:25:41.656Z,9.65
2023-02-14T17:28:27.187Z,9.55
2023-02-14T17:31:13.597Z,9.45
2023-02-14T17:33:59.102Z,9.39
2023-02-14T17:36:44.485Z,9.34
2023-02-14T17:39:29.708Z,9.29
2023-02-14T17:42:14.916Z,9.25
2023-02-14T17:45:00.528Z,9.19
2023-02-14T17:47:46.241Z,9.15
2023-02-14T17:50:31.655Z,9.10
2023-02-14T17:53:18.155Z,9.09
2023-02-14T17:56:20.255Z,9.06
2023-02-14T17:59:09.104Z,9.01
2023-02-14T18:01:54.630Z,8.97
2023-02-14T18:04:40.181Z,8.92
2023-02-14T18:07:26.101Z,8.90
2023-02-14T18:10:12.394Z,8.81
2023-02-14T18:12:57.653Z,8.75
2023-02-14T18:15:43.264Z,8.69
2023-02-14T18:18:28.656Z,8.65
2023-02-14T18:21:15.767Z,8.59
2023-02-14T18:24:02.953Z,8.52
2023-02-14T18:26:48.530Z,8.44
2023-02-14T18:29:34.970Z,8.38
2023-02-14T18:32:20.391Z,8.37
2023-02-14T18:35:06.221Z,8.33
2023-02-14T18:37:51.846Z,8.31
2023-02-14T18:40:38.036Z,8.28
2023-02-14T18:43:23.256Z,8.26
2023-02-14T18:46:14.478Z,8.27
2023-02-14T18:48:59.869Z,8.24
2023-02-14T18:51:45.538Z,8.14
2023-02-14T18:54:31.220Z,8.10
2023-02-14T18:57:16.513Z,8.06
2023-02-14T19:00:06.806Z,8.02
2023-02-14T19:02:52.110Z,7.98
2023-02-14T19:05:38.381Z,7.96
2023-02-14T19:08:23.672Z,7.99
2023-02-14T19:11:21.858Z,8.03
2023-02-14T19:14:10.382Z,8.07
2023-02-14T19:16:56.068Z,8.08
2023-02-14T19:19:41.516Z,8.05
2023-02-14T19:22:26.884Z,8.10
2023-02-14T19:25:12.617Z,8.15
2023-02-14T19:27:58.018Z,8.20
2023-02-14T19:30:43.435Z,8.26
2023-02-14T19:33:28.985Z,8.27
2023-02-14T19:36:17.327Z,8.21
2023-02-14T19:39:03.047Z,8.23
2023-02-14T19:41:48.914Z,8.22
2023-02-14T19:44:34.231Z,8.25
2023-02-14T19:47:31.301Z,8.23
2023-02-14T19:50:25.604Z,8.21
2023-02-14T19:53:11.207Z,8.12
2023-02-14T19:55:56.918Z,8.08
2023-02-14T19:58:42.198Z,8.00
2023-02-14T20:01:33.890Z,8.02
2023-02-14T20:04:22.502Z,7.99
2023-02-14T20:07:08.598Z,7.98
2023-02-14T20:09:54.884Z,7.92
2023-02-14T20:12:40.310Z,7.82
2023-02-14T20:15:28.098Z,7.69
2023-02-14T20:18:13.813Z,7.67
2023-02-14T20:21:02.343Z,7.64
2023-02-14T20:23:47.746Z,7.64
2023-02-14T20:26:34.408Z,7.65
2023-02-14T20:29:21.267Z,7.65
2023-02-14T20:32:07.113Z,7.69
2023-02-14T20:34:52.463Z,7.74
2023-02-14T20:37:38.205Z,7.82
2023-02-14T20:40:23.691Z,7.86
2023-02-14T20:43:09.420Z,7.96
2023-02-14T20:45:59.126Z,8.00
2023-02-14T20:48:44.702Z,8.04
2023-02-14T20:51:30.005Z,8.11
2023-02-14T20:54:16.276Z,8.11
2023-02-14T20:57:01.635Z,8.11
2023-02-14T20:59:47.121Z,8.10
2023-02-14T21:02:32.694Z,8.13
2023-02-14T21:05:19.354Z,8.15
2023-02-14T21:08:04.915Z,8.19
2023-02-14T21:10:50.245Z,8.18
2023-02-14T21:13:36.322Z,8.15
2023-02-14T21:16:22.010Z,8.13
2023-02-14T21:19:07.641Z,8.17
2023-02-14T21:21:53.420Z,8.23
2023-02-14T21:24:40.341Z,8.27
2023-02-14T21:27:25.787Z,8.32
2023-02-14T21:30:12.590Z,8.37
2023-02-14T21:32:58.221Z,8.49
2023-02-14T21:35:43.969Z,8.49
2023-02-14T21:38:29.376Z,8.51
2023-02-14T21:41:18.683Z,8.52
2023-02-14T21:44:05.048Z,8.47
2023-02-14T21:46:50.566Z,8.39
2023-02-14T21:49:54.424Z,8.45
2023-02-14T21:52:39.956Z,8.42
2023-02-14T21:55:25.331Z,8.42
2023-02-14T21:58:10.834Z,8.39
2023-02-14T22:00:56.170Z,8.37
2023-02-14T22:03:41.518Z,8.31
2023-02-14T22:06:28.530Z,8.26
2023-02-14T22:09:14.585Z,8.33
2023-02-14T22:12:00.183Z,8.24
2023-02-14T22:14:45.636Z,8.21
2023-02-14T22:17:33.111Z,8.12
2023-02-14T22:20:18.796Z,8.11
2023-02-14T22:23:04.321Z,8.08
2023-02-14T22:25:49.633Z,8.11
2023-02-14T22:28:35.031Z,8.10
2023-02-14T22:31:20.983Z,8.10
2023-02-14T22:34:09.120Z,8.10
2023-02-14T22:36:54.957Z,8.13
2023-02-14T22:39:40.264Z,8.11
2023-02-14T22:42:25.535Z,8.27
2023-02-14T22:45:10.907Z,8.35
2023-02-14T22:47:56.230Z,8.30
2023-02-14T22:50:42.155Z,8.31
2023-02-14T22:53:27.657Z,8.35
2023-02-14T22:56:16.565Z,8.37
2023-02-14T22:59:04.974Z,8.35
2023-02-14T23:01:52.480Z,8.23
2023-02-14T23:04:37.656Z,8.17
2023-02-14T23:07:23.266Z,8.13
2023-02-14T23:10:09.955Z,8.11
2023-02-14T23:13:13.817Z,8.16
2023-02-14T23:16:19.656Z,8.16
2023-02-14T23:19:23.736Z,8.09
2023-02-14T23:22:12.736Z,8.09
2023-02-14T23:25:01.164Z,8.02
2023-02-14T23:27:49.347Z,7.96
2023-02-14T23:30:35.060Z,7.92
2023-02-14T23:33:20.688Z,7.85
2023-02-14T23:36:06.028Z,7.76
2023-02-14T23:38:51.454Z,7.65
2023-02-14T23:41:49.157Z,7.61
2023-02-14T23:44:35.837Z,7.59
2023-02-14T23:47:21.347Z,7.56
2023-02-14T23:50:07.205Z,7.50
2023-02-14T23:52:52.917Z,7.36
2023-02-14T23:55:38.203Z,7.32
2023-02-14T23:58:23.458Z,7.30
